sensor_id;sensor_type;location;lat;lon;timestamp;P1;durP1;ratioP1;P2;durP2;ratioP2
79401;SDS011;68857;47.916;106.940;2023-12-04T00:00:46;52.25;;;19.08;;
79401;SDS011;68857;47.916;106.940;2023-12-04T00:03:13;43.72;;;18.40;;
79401;SDS011;68857;47.916;106.940;2023-12-04T00:05:42;43.70;;;17.10;;
79401;SDS011;68857;47.916;106.940;2023-12-04T00:08:09;50.20;;;19.02;;
79401;SDS011;68857;47.916;106.940;2023-12-04T00:10:36;49.33;;;19.95;;
79401;SDS011;68857;47.916;106.940;2023-12-04T00:13:03;52.53;;;18.88;;
79401;SDS011;68857;47.916;106.940;2023-12-04T00:15:30;48.88;;;19.85;;
79401;SDS011;68857;47.916;106.940;2023-12-04T00:17:56;48.58;;;19.88;;
79401;SDS011;68857;47.916;106.940;2023-12-04T00:20:23;52.42;;;20.13;;
79401;SDS011;68857;47.916;106.940;2023-12-04T00:22:50;69.03;;;26.13;;
79401;SDS011;68857;47.916;106.940;2023-12-04T00:25:17;65.70;;;23.73;;
79401;SDS011;68857;47.916;106.940;2023-12-04T00:27:44;62.85;;;22.88;;
79401;SDS011;68857;47.916;106.940;2023-12-04T00:30:10;52.38;;;22.65;;
79401;SDS011;68857;47.916;106.940;2023-12-04T00:32:37;45.33;;;19.77;;
79401;SDS011;68857;47.916;106.940;2023-12-04T00:35:04;41.53;;;18.25;;
79401;SDS011;68857;47.916;106.940;2023-12-04T00:37:31;47.92;;;16.75;;
79401;SDS011;68857;47.916;106.940;2023-12-04T00:40:02;47.03;;;17.17;;
79401;SDS011;68857;47.916;106.940;2023-12-04T00:42:29;43.53;;;17.23;;
79401;SDS011;68857;47.916;106.940;2023-12-04T00:44:56;43.97;;;15.13;;
79401;SDS011;68857;47.916;106.940;2023-12-04T00:47:23;52.88;;;16.38;;
79401;SDS011;68857;47.916;106.940;2023-12-04T00:49:49;45.88;;;17.00;;
79401;SDS011;68857;47.916;106.940;2023-12-04T00:52:16;43.78;;;15.52;;
79401;SDS011;68857;47.916;106.940;2023-12-04T00:54:43;42.53;;;15.65;;
79401;SDS011;68857;47.916;106.940;2023-12-04T00:57:10;39.55;;;16.15;;
79401;SDS011;68857;47.916;106.940;2023-12-04T00:59:37;42.03;;;16.45;;
79401;SDS011;68857;47.916;106.940;2023-12-04T01:02:04;41.72;;;16.05;;
79401;SDS011;68857;47.916;106.940;2023-12-04T01:04:31;39.45;;;15.95;;
79401;SDS011;68857;47.916;106.940;2023-12-04T01:06:58;45.92;;;14.95;;
79401;SDS011;68857;47.916;106.940;2023-12-04T01:11:52;55.13;;;23.02;;
79401;SDS011;68857;47.916;106.940;2023-12-04T01:16:45;47.83;;;18.17;;
79401;SDS011;68857;47.916;106.940;2023-12-04T01:19:11;48.78;;;19.40;;
79401;SDS011;68857;47.916;106.940;2023-12-04T01:21:38;47.47;;;19.05;;
79401;SDS011;68857;47.916;106.940;2023-12-04T01:24:05;46.88;;;19.27;;
79401;SDS011;68857;47.916;106.940;2023-12-04T01:26:32;42.22;;;17.73;;
79401;SDS011;68857;47.916;106.940;2023-12-04T01:28:59;49.67;;;18.45;;
79401;SDS011;68857;47.916;106.940;2023-12-04T01:31:26;49.20;;;19.48;;
79401;SDS011;68857;47.916;106.940;2023-12-04T01:33:52;52.00;;;20.92;;
79401;SDS011;68857;47.916;106.940;2023-12-04T01:36:19;51.20;;;20.85;;
79401;SDS011;68857;47.916;106.940;2023-12-04T01:38:46;47.53;;;17.33;;
79401;SDS011;68857;47.916;106.940;2023-12-04T01:41:13;51.53;;;18.92;;
79401;SDS011;68857;47.916;106.940;2023-12-04T01:43:40;49.05;;;18.45;;
79401;SDS011;68857;47.916;106.940;2023-12-04T01:46:06;45.30;;;18.30;;
79401;SDS011;68857;47.916;106.940;2023-12-04T01:48:34;44.33;;;15.45;;
79401;SDS011;68857;47.916;106.940;2023-12-04T01:51:03;44.50;;;17.42;;
79401;SDS011;68857;47.916;106.940;2023-12-04T01:53:32;50.30;;;18.80;;
79401;SDS011;68857;47.916;106.940;2023-12-04T01:58:25;44.85;;;16.30;;
79401;SDS011;68857;47.916;106.940;2023-12-04T02:00:52;47.72;;;15.20;;
79401;SDS011;68857;47.916;106.940;2023-12-04T02:03:19;36.05;;;13.93;;
79401;SDS011;68857;47.916;106.940;2023-12-04T02:05:46;42.03;;;13.82;;
79401;SDS011;68857;47.916;106.940;2023-12-04T02:08:13;41.15;;;14.25;;
79401;SDS011;68857;47.916;106.940;2023-12-04T02:10:41;42.83;;;15.55;;
79401;SDS011;68857;47.916;106.940;2023-12-04T02:13:08;39.22;;;15.50;;
79401;SDS011;68857;47.916;106.940;2023-12-04T02:15:34;41.75;;;13.82;;
79401;SDS011;68857;47.916;106.940;2023-12-04T02:18:04;34.95;;;13.95;;
79401;SDS011;68857;47.916;106.940;2023-12-04T02:20:34;41.53;;;14.90;;
79401;SDS011;68857;47.916;106.940;2023-12-04T02:23:01;31.92;;;12.88;;
79401;SDS011;68857;47.916;106.940;2023-12-04T02:25:29;30.67;;;12.50;;
79401;SDS011;68857;47.916;106.940;2023-12-04T02:27:56;34.42;;;13.30;;
79401;SDS011;68857;47.916;106.940;2023-12-04T02:30:25;34.55;;;11.82;;
79401;SDS011;68857;47.916;106.940;2023-12-04T02:32:52;36.80;;;12.73;;
79401;SDS011;68857;47.916;106.940;2023-12-04T02:35:21;35.17;;;13.63;;
79401;SDS011;68857;47.916;106.940;2023-12-04T02:37:49;34.40;;;13.43;;
79401;SDS011;68857;47.916;106.940;2023-12-04T02:40:15;40.38;;;15.25;;
79401;SDS011;68857;47.916;106.940;2023-12-04T02:42:42;38.05;;;13.88;;
79401;SDS011;68857;47.916;106.940;2023-12-04T02:45:09;55.78;;;17.13;;
79401;SDS011;68857;47.916;106.940;2023-12-04T02:47:36;40.88;;;15.38;;
79401;SDS011;68857;47.916;106.940;2023-12-04T02:50:03;46.28;;;17.77;;
79401;SDS011;68857;47.916;106.940;2023-12-04T02:52:29;47.97;;;16.27;;
79401;SDS011;68857;47.916;106.940;2023-12-04T02:54:56;37.08;;;14.05;;
79401;SDS011;68857;47.916;106.940;2023-12-04T02:57:23;42.28;;;16.02;;
79401;SDS011;68857;47.916;106.940;2023-12-04T02:59:50;38.15;;;14.85;;
79401;SDS011;68857;47.916;106.940;2023-12-04T03:02:17;36.85;;;13.25;;
79401;SDS011;68857;47.916;106.940;2023-12-04T03:04:43;34.97;;;12.05;;
79401;SDS011;68857;47.916;106.940;2023-12-04T03:07:11;33.10;;;12.77;;
79401;SDS011;68857;47.916;106.940;2023-12-04T03:09:37;40.95;;;14.20;;
79401;SDS011;68857;47.916;106.940;2023-12-04T03:12:04;38.50;;;14.32;;
79401;SDS011;68857;47.916;106.940;2023-12-04T03:14:31;37.38;;;12.80;;
79401;SDS011;68857;47.916;106.940;2023-12-04T03:16:58;37.40;;;13.15;;
79401;SDS011;68857;47.916;106.940;2023-12-04T03:19:25;33.15;;;12.82;;
79401;SDS011;68857;47.916;106.940;2023-12-04T03:21:52;35.17;;;13.02;;
79401;SDS011;68857;47.916;106.940;2023-12-04T03:24:18;32.67;;;12.35;;
79401;SDS011;68857;47.916;106.940;2023-12-04T03:26:45;32.13;;;13.05;;
79401;SDS011;68857;47.916;106.940;2023-12-04T03:29:12;27.33;;;10.98;;
79401;SDS011;68857;47.916;106.940;2023-12-04T03:31:39;26.70;;;10.65;;
79401;SDS011;68857;47.916;106.940;2023-12-04T03:34:05;28.40;;;11.02;;
79401;SDS011;68857;47.916;106.940;2023-12-04T03:36:32;24.85;;;9.50;;
79401;SDS011;68857;47.916;106.940;2023-12-04T03:38:59;26.88;;;11.05;;
79401;SDS011;68857;47.916;106.940;2023-12-04T03:41:25;31.80;;;10.38;;
79401;SDS011;68857;47.916;106.940;2023-12-04T03:43:52;24.70;;;9.55;;
79401;SDS011;68857;47.916;106.940;2023-12-04T03:46:19;33.92;;;10.30;;
79401;SDS011;68857;47.916;106.940;2023-12-04T03:48:46;26.77;;;10.70;;
79401;SDS011;68857;47.916;106.940;2023-12-04T03:51:12;28.55;;;11.05;;
79401;SDS011;68857;47.916;106.940;2023-12-04T03:53:39;28.92;;;11.95;;
79401;SDS011;68857;47.916;106.940;2023-12-04T03:56:06;29.80;;;10.98;;
79401;SDS011;68857;47.916;106.940;2023-12-04T03:58:33;32.35;;;10.40;;
79401;SDS011;68857;47.916;106.940;2023-12-04T04:01:00;25.95;;;11.05;;
79401;SDS011;68857;47.916;106.940;2023-12-04T04:03:27;32.05;;;11.00;;
79401;SDS011;68857;47.916;106.940;2023-12-04T04:05:53;25.25;;;11.45;;
79401;SDS011;68857;47.916;106.940;2023-12-04T04:08:20;35.88;;;12.38;;
79401;SDS011;68857;47.916;106.940;2023-12-04T04:10:47;29.50;;;11.35;;
79401;SDS011;68857;47.916;106.940;2023-12-04T04:13:13;27.73;;;9.93;;
79401;SDS011;68857;47.916;106.940;2023-12-04T04:15:40;25.15;;;10.15;;
79401;SDS011;68857;47.916;106.940;2023-12-04T04:20:33;24.13;;;9.05;;
79401;SDS011;68857;47.916;106.940;2023-12-04T04:23:00;26.08;;;9.60;;
79401;SDS011;68857;47.916;106.940;2023-12-04T04:25:27;22.42;;;8.73;;
79401;SDS011;68857;47.916;106.940;2023-12-04T04:27:54;24.67;;;8.95;;
79401;SDS011;68857;47.916;106.940;2023-12-04T04:30:20;23.00;;;8.32;;
79401;SDS011;68857;47.916;106.940;2023-12-04T04:32:47;21.85;;;9.68;;
79401;SDS011;68857;47.916;106.940;2023-12-04T04:35:14;22.67;;;8.68;;
79401;SDS011;68857;47.916;106.940;2023-12-04T04:37:41;19.98;;;7.38;;
79401;SDS011;68857;47.916;106.940;2023-12-04T04:40:08;23.15;;;9.07;;
79401;SDS011;68857;47.916;106.940;2023-12-04T04:45:01;18.83;;;7.47;;
79401;SDS011;68857;47.916;106.940;2023-12-04T04:47:27;24.90;;;7.60;;
79401;SDS011;68857;47.916;106.940;2023-12-04T04:49:54;19.98;;;7.72;;
79401;SDS011;68857;47.916;106.940;2023-12-04T04:52:21;20.02;;;7.57;;
79401;SDS011;68857;47.916;106.940;2023-12-04T04:54:48;19.63;;;8.48;;
79401;SDS011;68857;47.916;106.940;2023-12-04T04:57:15;24.13;;;9.40;;
79401;SDS011;68857;47.916;106.940;2023-12-04T04:59:41;25.02;;;8.63;;
79401;SDS011;68857;47.916;106.940;2023-12-04T05:02:08;30.30;;;10.80;;
79401;SDS011;68857;47.916;106.940;2023-12-04T05:04:35;30.15;;;9.80;;
79401;SDS011;68857;47.916;106.940;2023-12-04T05:07:01;27.88;;;9.90;;
79401;SDS011;68857;47.916;106.940;2023-12-04T05:09:28;22.77;;;9.40;;
79401;SDS011;68857;47.916;106.940;2023-12-04T05:11:55;22.25;;;8.18;;
79401;SDS011;68857;47.916;106.940;2023-12-04T05:14:22;22.80;;;9.38;;
79401;SDS011;68857;47.916;106.940;2023-12-04T05:16:48;24.20;;;8.30;;
79401;SDS011;68857;47.916;106.940;2023-12-04T05:19:15;18.75;;;7.85;;
79401;SDS011;68857;47.916;106.940;2023-12-04T05:24:08;26.48;;;7.95;;
79401;SDS011;68857;47.916;106.940;2023-12-04T05:26:35;22.88;;;9.27;;
79401;SDS011;68857;47.916;106.940;2023-12-04T05:29:02;25.10;;;9.02;;
79401;SDS011;68857;47.916;106.940;2023-12-04T05:31:29;25.75;;;10.93;;
79401;SDS011;68857;47.916;106.940;2023-12-04T05:33:55;25.20;;;9.05;;
79401;SDS011;68857;47.916;106.940;2023-12-04T05:36:22;23.73;;;9.40;;
79401;SDS011;68857;47.916;106.940;2023-12-04T05:38:49;32.20;;;10.60;;
79401;SDS011;68857;47.916;106.940;2023-12-04T05:43:42;27.63;;;9.32;;
79401;SDS011;68857;47.916;106.940;2023-12-04T05:46:09;27.02;;;10.43;;
79401;SDS011;68857;47.916;106.940;2023-12-04T05:48:35;27.27;;;10.48;;
79401;SDS011;68857;47.916;106.940;2023-12-04T05:51:02;24.50;;;9.48;;
79401;SDS011;68857;47.916;106.940;2023-12-04T05:55:55;25.90;;;10.32;;
79401;SDS011;68857;47.916;106.940;2023-12-04T05:58:22;28.00;;;11.30;;
79401;SDS011;68857;47.916;106.940;2023-12-04T06:00:49;30.95;;;11.07;;
79401;SDS011;68857;47.916;106.940;2023-12-04T06:05:42;25.95;;;11.20;;
79401;SDS011;68857;47.916;106.940;2023-12-04T06:08:08;29.55;;;12.32;;
79401;SDS011;68857;47.916;106.940;2023-12-04T06:10:35;27.67;;;10.85;;
79401;SDS011;68857;47.916;106.940;2023-12-04T06:15:28;31.55;;;11.75;;
79401;SDS011;68857;47.916;106.940;2023-12-04T06:20:21;28.90;;;11.25;;
79401;SDS011;68857;47.916;106.940;2023-12-04T06:25:14;28.80;;;10.85;;
79401;SDS011;68857;47.916;106.940;2023-12-04T06:27:41;25.15;;;10.77;;
79401;SDS011;68857;47.916;106.940;2023-12-04T06:30:08;30.25;;;11.15;;
79401;SDS011;68857;47.916;106.940;2023-12-04T06:32:35;30.45;;;10.82;;
79401;SDS011;68857;47.916;106.940;2023-12-04T06:37:29;28.60;;;9.88;;
79401;SDS011;68857;47.916;106.940;2023-12-04T06:42:22;25.88;;;8.95;;
79401;SDS011;68857;47.916;106.940;2023-12-04T06:44:49;27.58;;;10.45;;
79401;SDS011;68857;47.916;106.940;2023-12-04T06:47:17;20.55;;;9.48;;
79401;SDS011;68857;47.916;106.940;2023-12-04T06:49:44;22.52;;;8.82;;
79401;SDS011;68857;47.916;106.940;2023-12-04T06:54:37;21.33;;;7.78;;
79401;SDS011;68857;47.916;106.940;2023-12-04T06:57:04;20.88;;;7.65;;
79401;SDS011;68857;47.916;106.940;2023-12-04T07:01:57;20.80;;;7.53;;
79401;SDS011;68857;47.916;106.940;2023-12-04T07:04:24;21.23;;;7.47;;
79401;SDS011;68857;47.916;106.940;2023-12-04T07:06:50;18.60;;;7.18;;
79401;SDS011;68857;47.916;106.940;2023-12-04T07:09:17;21.80;;;8.57;;
79401;SDS011;68857;47.916;106.940;2023-12-04T07:11:44;16.13;;;7.53;;
79401;SDS011;68857;47.916;106.940;2023-12-04T07:14:11;19.33;;;7.70;;
79401;SDS011;68857;47.916;106.940;2023-12-04T07:19:05;13.48;;;6.55;;
79401;SDS011;68857;47.916;106.940;2023-12-04T07:21:32;17.50;;;7.28;;
79401;SDS011;68857;47.916;106.940;2023-12-04T07:23:58;21.15;;;7.47;;
79401;SDS011;68857;47.916;106.940;2023-12-04T07:26:25;23.30;;;7.20;;
79401;SDS011;68857;47.916;106.940;2023-12-04T07:28:52;21.92;;;7.70;;
79401;SDS011;68857;47.916;106.940;2023-12-04T07:33:45;18.80;;;7.78;;
79401;SDS011;68857;47.916;106.940;2023-12-04T07:36:12;19.50;;;6.82;;
79401;SDS011;68857;47.916;106.940;2023-12-04T07:38:38;21.95;;;8.07;;
79401;SDS011;68857;47.916;106.940;2023-12-04T07:41:05;18.40;;;6.82;;
79401;SDS011;68857;47.916;106.940;2023-12-04T07:45:58;15.95;;;6.60;;
79401;SDS011;68857;47.916;106.940;2023-12-04T07:48:25;17.52;;;8.13;;
79401;SDS011;68857;47.916;106.940;2023-12-04T07:50:52;19.13;;;6.78;;
79401;SDS011;68857;47.916;106.940;2023-12-04T07:53:19;16.52;;;7.20;;
79401;SDS011;68857;47.916;106.940;2023-12-04T07:55:46;15.48;;;6.97;;
79401;SDS011;68857;47.916;106.940;2023-12-04T07:58:13;22.45;;;7.55;;
79401;SDS011;68857;47.916;106.940;2023-12-04T08:00:40;19.60;;;7.93;;
79401;SDS011;68857;47.916;106.940;2023-12-04T08:03:07;17.42;;;7.57;;
79401;SDS011;68857;47.916;106.940;2023-12-04T08:05:34;20.30;;;7.35;;
79401;SDS011;68857;47.916;106.940;2023-12-04T08:08:01;20.52;;;7.63;;
79401;SDS011;68857;47.916;106.940;2023-12-04T08:10:27;18.92;;;7.47;;
79401;SDS011;68857;47.916;106.940;2023-12-04T08:12:54;23.10;;;7.90;;
79401;SDS011;68857;47.916;106.940;2023-12-04T08:15:21;22.20;;;8.13;;
79401;SDS011;68857;47.916;106.940;2023-12-04T08:17:48;21.42;;;7.60;;
79401;SDS011;68857;47.916;106.940;2023-12-04T08:20:14;14.70;;;7.95;;
79401;SDS011;68857;47.916;106.940;2023-12-04T08:22:41;21.52;;;7.97;;
79401;SDS011;68857;47.916;106.940;2023-12-04T08:25:11;19.50;;;7.05;;
79401;SDS011;68857;47.916;106.940;2023-12-04T08:27:38;22.23;;;8.15;;
79401;SDS011;68857;47.916;106.940;2023-12-04T08:30:05;30.58;;;9.93;;
79401;SDS011;68857;47.916;106.940;2023-12-04T08:32:32;25.27;;;9.55;;
79401;SDS011;68857;47.916;106.940;2023-12-04T08:37:25;40.72;;;15.27;;
79401;SDS011;68857;47.916;106.940;2023-12-04T08:39:52;41.10;;;15.82;;
79401;SDS011;68857;47.916;106.940;2023-12-04T08:44:45;53.58;;;20.90;;
79401;SDS011;68857;47.916;106.940;2023-12-04T08:47:12;54.55;;;20.65;;
79401;SDS011;68857;47.916;106.940;2023-12-04T08:49:40;60.33;;;22.27;;
79401;SDS011;68857;47.916;106.940;2023-12-04T08:52:07;55.78;;;22.33;;
79401;SDS011;68857;47.916;106.940;2023-12-04T08:54:34;64.80;;;23.08;;
79401;SDS011;68857;47.916;106.940;2023-12-04T08:57:00;76.82;;;26.98;;
79401;SDS011;68857;47.916;106.940;2023-12-04T08:59:27;65.15;;;24.98;;
79401;SDS011;68857;47.916;106.940;2023-12-04T09:01:54;58.58;;;23.00;;
79401;SDS011;68857;47.916;106.940;2023-12-04T09:04:20;63.22;;;25.45;;
79401;SDS011;68857;47.916;106.940;2023-12-04T09:06:47;62.63;;;23.95;;
79401;SDS011;68857;47.916;106.940;2023-12-04T09:09:14;57.25;;;21.02;;
79401;SDS011;68857;47.916;106.940;2023-12-04T09:11:42;65.63;;;25.55;;
79401;SDS011;68857;47.916;106.940;2023-12-04T09:14:09;56.17;;;22.58;;
79401;SDS011;68857;47.916;106.940;2023-12-04T09:16:36;50.13;;;21.10;;
79401;SDS011;68857;47.916;106.940;2023-12-04T09:19:03;58.88;;;23.00;;
79401;SDS011;68857;47.916;106.940;2023-12-04T09:21:30;50.95;;;19.52;;
79401;SDS011;68857;47.916;106.940;2023-12-04T09:23:56;47.70;;;17.48;;
79401;SDS011;68857;47.916;106.940;2023-12-04T09:26:23;48.70;;;17.75;;
79401;SDS011;68857;47.916;106.940;2023-12-04T09:28:50;58.20;;;20.35;;
79401;SDS011;68857;47.916;106.940;2023-12-04T09:31:17;51.65;;;18.88;;
79401;SDS011;68857;47.916;106.940;2023-12-04T09:33:43;48.72;;;18.25;;
79401;SDS011;68857;47.916;106.940;2023-12-04T09:36:10;51.13;;;19.60;;
79401;SDS011;68857;47.916;106.940;2023-12-04T09:38:37;45.45;;;17.55;;
79401;SDS011;68857;47.916;106.940;2023-12-04T09:41:04;51.30;;;17.23;;
79401;SDS011;68857;47.916;106.940;2023-12-04T09:43:32;45.10;;;16.75;;
79401;SDS011;68857;47.916;106.940;2023-12-04T09:45:59;55.60;;;18.08;;
79401;SDS011;68857;47.916;106.940;2023-12-04T09:48:26;49.47;;;19.40;;
79401;SDS011;68857;47.916;106.940;2023-12-04T09:50:54;52.47;;;20.00;;
79401;SDS011;68857;47.916;106.940;2023-12-04T09:53:21;58.92;;;21.90;;
79401;SDS011;68857;47.916;106.940;2023-12-04T09:58:14;64.60;;;24.05;;
79401;SDS011;68857;47.916;106.940;2023-12-04T10:00:42;72.45;;;25.52;;
79401;SDS011;68857;47.916;106.940;2023-12-04T10:03:09;76.13;;;28.35;;
79401;SDS011;68857;47.916;106.940;2023-12-04T10:05:36;82.03;;;29.75;;
79401;SDS011;68857;47.916;106.940;2023-12-04T10:08:03;90.53;;;31.35;;
79401;SDS011;68857;47.916;106.940;2023-12-04T10:12:56;88.40;;;31.15;;
79401;SDS011;68857;47.916;106.940;2023-12-04T10:15:23;94.53;;;31.40;;
79401;SDS011;68857;47.916;106.940;2023-12-04T10:17:50;78.93;;;30.63;;
79401;SDS011;68857;47.916;106.940;2023-12-04T10:20:17;87.72;;;31.25;;
79401;SDS011;68857;47.916;106.940;2023-12-04T10:22:55;86.00;;;31.50;;
79401;SDS011;68857;47.916;106.940;2023-12-04T10:25:22;73.18;;;30.27;;
79401;SDS011;68857;47.916;106.940;2023-12-04T10:27:51;76.82;;;28.20;;
79401;SDS011;68857;47.916;106.940;2023-12-04T10:30:23;73.40;;;27.25;;
79401;SDS011;68857;47.916;106.940;2023-12-04T10:32:53;93.13;;;32.88;;
79401;SDS011;68857;47.916;106.940;2023-12-04T10:35:20;100.53;;;33.50;;
79401;SDS011;68857;47.916;106.940;2023-12-04T10:37:49;100.30;;;37.80;;
79401;SDS011;68857;47.916;106.940;2023-12-04T10:40:22;106.25;;;36.53;;
79401;SDS011;68857;47.916;106.940;2023-12-04T10:42:49;92.32;;;35.88;;
79401;SDS011;68857;47.916;106.940;2023-12-04T10:45:16;85.97;;;33.17;;
79401;SDS011;68857;47.916;106.940;2023-12-04T10:47:43;82.70;;;31.75;;
79401;SDS011;68857;47.916;106.940;2023-12-04T10:50:10;89.22;;;34.00;;
79401;SDS011;68857;47.916;106.940;2023-12-04T10:52:40;90.05;;;34.85;;
79401;SDS011;68857;47.916;106.940;2023-12-04T10:55:08;96.10;;;35.75;;
79401;SDS011;68857;47.916;106.940;2023-12-04T10:57:38;87.95;;;32.80;;
79401;SDS011;68857;47.916;106.940;2023-12-04T11:00:05;83.20;;;30.08;;
79401;SDS011;68857;47.916;106.940;2023-12-04T11:02:34;70.43;;;28.45;;
79401;SDS011;68857;47.916;106.940;2023-12-04T11:05:19;67.05;;;25.25;;
79401;SDS011;68857;47.916;106.940;2023-12-04T11:08:00;54.42;;;21.38;;
79401;SDS011;68857;47.916;106.940;2023-12-04T11:10:29;63.85;;;22.67;;
79401;SDS011;68857;47.916;106.940;2023-12-04T11:12:57;57.33;;;22.27;;
79401;SDS011;68857;47.916;106.940;2023-12-04T11:15:29;77.47;;;26.83;;
79401;SDS011;68857;47.916;106.940;2023-12-04T11:17:58;82.53;;;29.20;;
79401;SDS011;68857;47.916;106.940;2023-12-04T11:20:30;78.25;;;30.40;;
79401;SDS011;68857;47.916;106.940;2023-12-04T11:22:58;80.30;;;28.65;;
79401;SDS011;68857;47.916;106.940;2023-12-04T11:27:52;89.85;;;34.55;;
79401;SDS011;68857;47.916;106.940;2023-12-04T11:30:19;93.07;;;34.97;;
79401;SDS011;68857;47.916;106.940;2023-12-04T11:32:48;104.57;;;37.55;;
79401;SDS011;68857;47.916;106.940;2023-12-04T11:35:16;105.72;;;40.22;;
79401;SDS011;68857;47.916;106.940;2023-12-04T11:37:44;122.28;;;42.72;;
79401;SDS011;68857;47.916;106.940;2023-12-04T11:40:12;121.82;;;45.78;;
79401;SDS011;68857;47.916;106.940;2023-12-04T11:42:39;127.05;;;49.08;;
79401;SDS011;68857;47.916;106.940;2023-12-04T11:45:06;143.70;;;50.47;;
79401;SDS011;68857;47.916;106.940;2023-12-04T11:50:00;136.27;;;49.72;;
79401;SDS011;68857;47.916;106.940;2023-12-04T11:52:33;132.27;;;47.67;;
79401;SDS011;68857;47.916;106.940;2023-12-04T11:57:34;115.88;;;43.13;;
79401;SDS011;68857;47.916;106.940;2023-12-04T12:00:11;126.30;;;48.38;;
79401;SDS011;68857;47.916;106.940;2023-12-04T12:02:40;128.60;;;46.28;;
79401;SDS011;68857;47.916;106.940;2023-12-04T12:05:07;114.13;;;42.95;;
79401;SDS011;68857;47.916;106.940;2023-12-04T12:07:34;118.88;;;43.08;;
79401;SDS011;68857;47.916;106.940;2023-12-04T12:10:01;125.05;;;45.45;;
79401;SDS011;68857;47.916;106.940;2023-12-04T12:12:28;126.85;;;45.38;;
79401;SDS011;68857;47.916;106.940;2023-12-04T12:14:55;117.93;;;43.47;;
79401;SDS011;68857;47.916;106.940;2023-12-04T12:17:22;117.07;;;44.55;;
79401;SDS011;68857;47.916;106.940;2023-12-04T12:19:49;114.78;;;44.05;;
79401;SDS011;68857;47.916;106.940;2023-12-04T12:22:15;119.57;;;47.58;;
79401;SDS011;68857;47.916;106.940;2023-12-04T12:24:43;123.13;;;43.50;;
79401;SDS011;68857;47.916;106.940;2023-12-04T12:27:10;120.78;;;44.97;;
79401;SDS011;68857;47.916;106.940;2023-12-04T12:29:37;116.95;;;43.88;;
79401;SDS011;68857;47.916;106.940;2023-12-04T12:32:03;109.03;;;42.53;;
79401;SDS011;68857;47.916;106.940;2023-12-04T12:37:03;115.80;;;43.78;;
79401;SDS011;68857;47.916;106.940;2023-12-04T12:39:31;113.57;;;43.25;;
79401;SDS011;68857;47.916;106.940;2023-12-04T12:41:58;111.97;;;41.38;;
79401;SDS011;68857;47.916;106.940;2023-12-04T12:44:25;106.57;;;41.00;;
79401;SDS011;68857;47.916;106.940;2023-12-04T12:46:53;103.55;;;40.72;;
79401;SDS011;68857;47.916;106.940;2023-12-04T12:49:20;107.50;;;38.78;;
79401;SDS011;68857;47.916;106.940;2023-12-04T12:51:47;96.85;;;35.30;;
79401;SDS011;68857;47.916;106.940;2023-12-04T12:54:14;83.90;;;33.17;;
79401;SDS011;68857;47.916;106.940;2023-12-04T12:56:40;72.85;;;29.17;;
79401;SDS011;68857;47.916;106.940;2023-12-04T12:59:07;71.03;;;28.55;;
79401;SDS011;68857;47.916;106.940;2023-12-04T13:01:34;65.57;;;24.98;;
79401;SDS011;68857;47.916;106.940;2023-12-04T13:04:01;59.45;;;25.13;;
79401;SDS011;68857;47.916;106.940;2023-12-04T13:06:29;63.65;;;22.67;;
79401;SDS011;68857;47.916;106.940;2023-12-04T13:08:55;63.33;;;23.80;;
79401;SDS011;68857;47.916;106.940;2023-12-04T13:11:22;56.90;;;20.35;;
79401;SDS011;68857;47.916;106.940;2023-12-04T13:13:49;59.95;;;20.77;;
79401;SDS011;68857;47.916;106.940;2023-12-04T13:16:16;48.15;;;19.38;;
79401;SDS011;68857;47.916;106.940;2023-12-04T13:18:43;54.60;;;21.13;;
79401;SDS011;68857;47.916;106.940;2023-12-04T13:21:10;51.03;;;19.35;;
79401;SDS011;68857;47.916;106.940;2023-12-04T13:26:03;47.65;;;17.95;;
79401;SDS011;68857;47.916;106.940;2023-12-04T13:28:30;57.83;;;21.05;;
79401;SDS011;68857;47.916;106.940;2023-12-04T13:30:57;51.88;;;20.30;;
79401;SDS011;68857;47.916;106.940;2023-12-04T13:33:23;60.25;;;21.63;;
79401;SDS011;68857;47.916;106.940;2023-12-04T13:35:51;60.53;;;21.80;;
79401;SDS011;68857;47.916;106.940;2023-12-04T13:38:18;57.38;;;22.80;;
79401;SDS011;68857;47.916;106.940;2023-12-04T13:40:44;69.03;;;24.33;;
79401;SDS011;68857;47.916;106.940;2023-12-04T13:43:25;69.90;;;24.58;;
79401;SDS011;68857;47.916;106.940;2023-12-04T13:46:11;67.82;;;27.15;;
79401;SDS011;68857;47.916;106.940;2023-12-04T13:51:11;64.63;;;22.23;;
79401;SDS011;68857;47.916;106.940;2023-12-04T13:53:38;55.70;;;20.30;;
79401;SDS011;68857;47.916;106.940;2023-12-04T13:56:25;42.67;;;16.70;;
79401;SDS011;68857;47.916;106.940;2023-12-04T13:59:15;39.80;;;15.23;;
79401;SDS011;68857;47.916;106.940;2023-12-04T14:01:45;35.60;;;13.80;;
79401;SDS011;68857;47.916;106.940;2023-12-04T14:04:12;39.45;;;14.32;;
79401;SDS011;68857;47.916;106.940;2023-12-04T14:06:39;35.60;;;14.07;;
79401;SDS011;68857;47.916;106.940;2023-12-04T14:09:06;31.52;;;12.70;;
79401;SDS011;68857;47.916;106.940;2023-12-04T14:11:40;34.50;;;13.32;;
79401;SDS011;68857;47.916;106.940;2023-12-04T14:14:07;32.70;;;11.48;;
79401;SDS011;68857;47.916;106.940;2023-12-04T14:16:34;29.73;;;11.40;;
79401;SDS011;68857;47.916;106.940;2023-12-04T14:19:01;36.28;;;11.90;;
79401;SDS011;68857;47.916;106.940;2023-12-04T14:21:28;27.85;;;11.10;;
79401;SDS011;68857;47.916;106.940;2023-12-04T14:23:54;29.40;;;11.65;;
79401;SDS011;68857;47.916;106.940;2023-12-04T14:26:21;28.23;;;10.15;;
79401;SDS011;68857;47.916;106.940;2023-12-04T14:28:48;34.20;;;12.75;;
79401;SDS011;68857;47.916;106.940;2023-12-04T14:31:15;31.63;;;12.30;;
79401;SDS011;68857;47.916;106.940;2023-12-04T14:33:41;32.67;;;12.40;;
79401;SDS011;68857;47.916;106.940;2023-12-04T14:36:08;46.13;;;13.77;;
79401;SDS011;68857;47.916;106.940;2023-12-04T14:38:37;40.42;;;14.85;;
79401;SDS011;68857;47.916;106.940;2023-12-04T14:41:04;39.00;;;15.15;;
79401;SDS011;68857;47.916;106.940;2023-12-04T14:43:32;50.20;;;18.60;;
79401;SDS011;68857;47.916;106.940;2023-12-04T14:45:59;46.40;;;18.20;;
79401;SDS011;68857;47.916;106.940;2023-12-04T14:48:27;49.00;;;16.90;;
79401;SDS011;68857;47.916;106.940;2023-12-04T14:50:53;50.35;;;17.83;;
79401;SDS011;68857;47.916;106.940;2023-12-04T14:53:20;42.28;;;16.25;;
79401;SDS011;68857;47.916;106.940;2023-12-04T14:56:09;36.22;;;15.00;;
79401;SDS011;68857;47.916;106.940;2023-12-04T14:58:55;43.08;;;14.38;;
79401;SDS011;68857;47.916;106.940;2023-12-04T15:01:25;35.08;;;12.90;;
79401;SDS011;68857;47.916;106.940;2023-12-04T15:04:04;27.58;;;11.85;;
79401;SDS011;68857;47.916;106.940;2023-12-04T15:06:42;27.05;;;11.38;;
79401;SDS011;68857;47.916;106.940;2023-12-04T15:09:27;27.08;;;9.15;;
79401;SDS011;68857;47.916;106.940;2023-12-04T15:12:20;25.30;;;8.68;;